메인 페이지
METAR-TAF:

METAR-TAF

공항 :

Northwest Florida Regional Airport / Eglin Air Force Base

Valparaiso, 플로리다, 미국

위도: 30-29N, 경도: 086-31W, 고도: 26m

현재 날씨관측

예보는 36분 전, 06:56시(UTC)에 발표되었습니다.
북북서6kt
온도 11°C
습도 76%
기압 1013 hPa
시정: 16.1km
맑음

METAR: KVPS 010656Z AUTO 34006KT 10SM CLR 11/07 A2990 RMK AO2 SLP132 T01120067 $

시각: 02:32 (07:32 UTC)

예보

예보는 4 시간 16분 전, 03:16시(UTC)에 발표되었습니다.
예보 대상 시간: 01일 03시부터 02일 07시까지 (UTC)
북북서12kt, 순간 최대 풍속 25kt
시정 10km 이상
고도 2500ft 상공 구름 조금
고도 30000ft 상공 구름 조금
전환 중
01일 04시부터 01일 05시까지 (UTC)
12kt
시정 10km 이상
고도 30000ft 상공 구름 조금
전환 중
01일 08시부터 01일 09시까지 (UTC)
10kt
시정 10km 이상
고도 2500ft 상공 구름 많음
고도 30000ft 상공 구름 많음
전환 중
01일 13시부터 01일 14시까지 (UTC)
12kt, 순간 최대 풍속 20kt
시정 10km 이상
고도 2000ft 상공 구름 조금
고도 30000ft 상공 구름 조금
전환 중
01일 23시부터 01일 24시까지 (UTC)
10kt
시정 10km 이상
고도 3200ft 상공 구름 조금
고도 30000ft 상공 구름 조금

TAF: KVPS 010316Z 0103/0207 34012G25KT 9999 FEW025 FEW300 510023 QNH2979INS BECMG 0104/0105 35012KT 9999 FEW300 510023 QNH2981INS BECMG 0108/0109 36010KT 9999 BKN025 BKN300 510023 QNH2988INS BECMG 0113/0114 36012G20KT 9999 FEW020 FEW300 510203 QNH2993INS BECMG 0123/0124 36010KT 9999 FEW032 FEW300 QNH3000INS TX22/0119Z TN11/0109Z

4,000개 이상의 공항 관측 자료 및 예보 (METAR 및 TAF 보고).

지도상에서 검색 가능한 기상관측소가 노란 점과 빨간 점으로 표시되어 있습니다.

기상관측소 명을 보려면 표시 위로 마우스를 이동하세요.

날씨 관측과 예보를 보려면 클릭하세요.

지도 변경 : 확대하려면 엑스 표시가 있는 녹색 버튼, 축소하려면 빼기 표시가 있는 녹색 버튼, 다음 페이지의 지도를 보려면 녹색 화살표를 클릭하세요.


METAR-TAF: